sensor_id;sensor_type;location;lat;lon;timestamp;pressure;altitude;pressure_sealevel;temperature;humidity
73842;BME280;62184;52.006;5.924;2022-12-17T00:00:33;101457.81;;;2.61;68.47
73842;BME280;62184;52.006;5.924;2022-12-17T00:03:00;101471.78;;;2.55;68.58
73842;BME280;62184;52.006;5.924;2022-12-17T00:05:26;101469.94;;;2.50;69.02
73842;BME280;62184;52.006;5.924;2022-12-17T00:07:56;101476.84;;;2.43;69.16
73842;BME280;62184;52.006;5.924;2022-12-17T00:10:23;101474.19;;;2.41;69.23
73842;BME280;62184;52.006;5.924;2022-12-17T00:12:49;101482.09;;;2.41;69.24
73842;BME280;62184;52.006;5.924;2022-12-17T00:15:16;101472.41;;;2.40;69.39
73842;BME280;62184;52.006;5.924;2022-12-17T00:17:45;101471.59;;;2.43;69.43
73842;BME280;62184;52.006;5.924;2022-12-17T00:20:11;101463.81;;;2.51;69.30
73842;BME280;62184;52.006;5.924;2022-12-17T00:22:38;101469.16;;;2.55;69.04
73842;BME280;62184;52.006;5.924;2022-12-17T00:25:05;101465.59;;;2.53;69.04
73842;BME280;62184;52.006;5.924;2022-12-17T00:27:31;101465.56;;;2.52;69.10
73842;BME280;62184;52.006;5.924;2022-12-17T00:29:58;101474.34;;;2.51;69.09
73842;BME280;62184;52.006;5.924;2022-12-17T00:32:24;101477.06;;;2.55;69.02
73842;BME280;62184;52.006;5.924;2022-12-17T00:34:53;101479.72;;;2.57;69.03
73842;BME280;62184;52.006;5.924;2022-12-17T00:37:20;101487.63;;;2.57;69.11
73842;BME280;62184;52.006;5.924;2022-12-17T00:39:46;101475.38;;;2.60;69.19
73842;BME280;62184;52.006;5.924;2022-12-17T00:42:13;101490.38;;;2.63;69.06
73842;BME280;62184;52.006;5.924;2022-12-17T00:44:39;101484.25;;;2.64;68.90
73842;BME280;62184;52.006;5.924;2022-12-17T00:47:06;101479.88;;;2.66;68.65
73842;BME280;62184;52.006;5.924;2022-12-17T00:49:32;101488.69;;;2.66;68.77
73842;BME280;62184;52.006;5.924;2022-12-17T00:52:01;101496.53;;;2.63;68.70
73842;BME280;62184;52.006;5.924;2022-12-17T00:54:27;101494.72;;;2.59;68.64
73842;BME280;62184;52.006;5.924;2022-12-17T00:56:54;101495.63;;;2.60;68.54
73842;BME280;62184;52.006;5.924;2022-12-17T00:59:21;101506.03;;;2.54;68.71
73842;BME280;62184;52.006;5.924;2022-12-17T01:01:47;101491.09;;;2.54;68.31
73842;BME280;62184;52.006;5.924;2022-12-17T01:04:14;101496.44;;;2.57;68.59
73842;BME280;62184;52.006;5.924;2022-12-17T01:06:40;101501.78;;;2.62;68.24
73842;BME280;62184;52.006;5.924;2022-12-17T01:09:09;101501.88;;;2.66;68.41
73842;BME280;62184;52.006;5.924;2022-12-17T01:11:36;101509.81;;;2.68;67.93
73842;BME280;62184;52.006;5.924;2022-12-17T01:14:03;101512.44;;;2.66;68.09
73842;BME280;62184;52.006;5.924;2022-12-17T01:16:29;101508.94;;;2.67;67.83
73842;BME280;62184;52.006;5.924;2022-12-17T01:18:56;101508.91;;;2.66;67.83
73842;BME280;62184;52.006;5.924;2022-12-17T01:21:24;101508.81;;;2.61;67.97
73842;BME280;62184;52.006;5.924;2022-12-17T01:23:50;101514.97;;;2.62;67.81
73842;BME280;62184;52.006;5.924;2022-12-17T01:26:19;101518.41;;;2.58;67.68
73842;BME280;62184;52.006;5.924;2022-12-17T01:28:46;101530.75;;;2.60;67.56
73842;BME280;62184;52.006;5.924;2022-12-17T01:31:12;101529.97;;;2.64;67.40
73842;BME280;62184;52.006;5.924;2022-12-17T01:33:38;101529.06;;;2.64;67.54
73842;BME280;62184;52.006;5.924;2022-12-17T01:36:05;101530.03;;;2.67;67.44
73842;BME280;62184;52.006;5.924;2022-12-17T01:38:32;101537.06;;;2.67;67.48
73842;BME280;62184;52.006;5.924;2022-12-17T01:40:59;101548.47;;;2.66;67.43
73842;BME280;62184;52.006;5.924;2022-12-17T01:43:33;101543.94;;;2.59;67.28
73842;BME280;62184;52.006;5.924;2022-12-17T01:46:01;101541.19;;;2.54;67.44
73842;BME280;62184;52.006;5.924;2022-12-17T01:48:30;101548.25;;;2.55;67.70
73842;BME280;62184;52.006;5.924;2022-12-17T01:50:58;101555.38;;;2.59;67.77
73842;BME280;62184;52.006;5.924;2022-12-17T01:53:32;101557.19;;;2.63;67.53
73842;BME280;62184;52.006;5.924;2022-12-17T01:56:02;101553.69;;;2.64;67.61
73842;BME280;62184;52.006;5.924;2022-12-17T01:58:33;101550.19;;;2.65;67.36
73842;BME280;62184;52.006;5.924;2022-12-17T02:01:00;101551.84;;;2.60;67.46
73842;BME280;62184;52.006;5.924;2022-12-17T02:03:27;101553.59;;;2.58;67.62
73842;BME280;62184;52.006;5.924;2022-12-17T02:06:00;101556.25;;;2.61;67.69
73842;BME280;62184;52.006;5.924;2022-12-17T02:08:37;101556.25;;;2.61;67.25
73842;BME280;62184;52.006;5.924;2022-12-17T02:11:16;101553.69;;;2.64;67.33
73842;BME280;62184;52.006;5.924;2022-12-17T02:13:57;101557.28;;;2.69;67.01
73842;BME280;62184;52.006;5.924;2022-12-17T02:16:34;101559.03;;;2.67;66.55
73842;BME280;62184;52.006;5.924;2022-12-17T02:19:23;101556.34;;;2.64;66.83
73842;BME280;62184;52.006;5.924;2022-12-17T02:22:07;101553.66;;;2.63;66.62
73842;BME280;62184;52.006;5.924;2022-12-17T02:24:47;101557.28;;;2.68;66.41
73842;BME280;62184;52.006;5.924;2022-12-17T02:27:26;101550.31;;;2.71;66.34
73842;BME280;62184;52.006;5.924;2022-12-17T02:30:00;101559.06;;;2.70;66.46
73842;BME280;62184;52.006;5.924;2022-12-17T02:32:29;101559.09;;;2.72;66.52
73842;BME280;62184;52.006;5.924;2022-12-17T02:35:00;101563.50;;;2.71;66.26
73842;BME280;62184;52.006;5.924;2022-12-17T02:37:32;101564.28;;;2.66;66.19
73842;BME280;62184;52.006;5.924;2022-12-17T02:39:58;101563.19;;;2.55;66.22
73842;BME280;62184;52.006;5.924;2022-12-17T02:42:28;101567.47;;;2.50;66.86
73842;BME280;62184;52.006;5.924;2022-12-17T02:44:56;101580.63;;;2.48;66.84
73842;BME280;62184;52.006;5.924;2022-12-17T02:47:24;101581.56;;;2.50;66.94
73842;BME280;62184;52.006;5.924;2022-12-17T02:49:51;101578.91;;;2.50;66.80
73842;BME280;62184;52.006;5.924;2022-12-17T02:52:19;101582.38;;;2.48;66.88
73842;BME280;62184;52.006;5.924;2022-12-17T02:54:46;101584.03;;;2.44;67.02
73842;BME280;62184;52.006;5.924;2022-12-17T02:57:13;101585.69;;;2.37;66.82
73842;BME280;62184;52.006;5.924;2022-12-17T02:59:42;101582.94;;;2.31;66.89
73842;BME280;62184;52.006;5.924;2022-12-17T03:02:09;101584.72;;;2.32;66.83
73842;BME280;62184;52.006;5.924;2022-12-17T03:04:35;101583.00;;;2.34;67.14
73842;BME280;62184;52.006;5.924;2022-12-17T03:07:02;101586.38;;;2.29;66.94
73842;BME280;62184;52.006;5.924;2022-12-17T03:09:28;101587.22;;;2.28;67.01
73842;BME280;62184;52.006;5.924;2022-12-17T03:11:55;101596.88;;;2.27;67.26
73842;BME280;62184;52.006;5.924;2022-12-17T03:14:21;101586.28;;;2.24;67.03
73842;BME280;62184;52.006;5.924;2022-12-17T03:16:50;101603.03;;;2.28;67.16
73842;BME280;62184;52.006;5.924;2022-12-17T03:19:17;101596.97;;;2.30;67.35
73842;BME280;62184;52.006;5.924;2022-12-17T03:21:43;101593.38;;;2.28;67.15
73842;BME280;62184;52.006;5.924;2022-12-17T03:24:10;101587.22;;;2.26;67.02
73842;BME280;62184;52.006;5.924;2022-12-17T03:26:36;101592.38;;;2.22;67.27
73842;BME280;62184;52.006;5.924;2022-12-17T03:29:03;101600.25;;;2.20;66.98
73842;BME280;62184;52.006;5.924;2022-12-17T03:31:29;101594.91;;;2.16;67.30
73842;BME280;62184;52.006;5.924;2022-12-17T03:33:59;101600.13;;;2.14;67.24
73842;BME280;62184;52.006;5.924;2022-12-17T03:36:25;101609.84;;;2.17;67.34
73842;BME280;62184;52.006;5.924;2022-12-17T03:38:51;101605.31;;;2.10;66.89
73842;BME280;62184;52.006;5.924;2022-12-17T03:41:18;101607.84;;;2.05;67.27
73842;BME280;62184;52.006;5.924;2022-12-17T03:43:44;101607.84;;;2.05;67.20
73842;BME280;62184;52.006;5.924;2022-12-17T03:46:11;101606.09;;;2.05;67.40
73842;BME280;62184;52.006;5.924;2022-12-17T03:48:37;101603.38;;;2.02;67.34
73842;BME280;62184;52.006;5.924;2022-12-17T03:51:06;101604.34;;;2.06;67.61
73842;BME280;62184;52.006;5.924;2022-12-17T03:53:33;101613.22;;;2.10;67.55
73842;BME280;62184;52.006;5.924;2022-12-17T03:55:59;101610.63;;;2.13;67.44
73842;BME280;62184;52.006;5.924;2022-12-17T03:58:26;101604.41;;;2.09;67.05
73842;BME280;62184;52.006;5.924;2022-12-17T04:00:52;101605.25;;;2.07;67.29
73842;BME280;62184;52.006;5.924;2022-12-17T04:03:19;101602.53;;;2.03;67.09
73842;BME280;62184;52.006;5.924;2022-12-17T04:05:45;101597.16;;;1.99;67.10
73842;BME280;62184;52.006;5.924;2022-12-17T04:08:14;101602.31;;;1.94;67.23
73842;BME280;62184;52.006;5.924;2022-12-17T04:10:41;101602.34;;;1.96;67.09
73842;BME280;62184;52.006;5.924;2022-12-17T04:13:07;101609.41;;;1.97;67.05
73842;BME280;62184;52.006;5.924;2022-12-17T04:15:33;101604.09;;;1.95;67.12
73842;BME280;62184;52.006;5.924;2022-12-17T04:18:00;101606.78;;;1.97;67.00
73842;BME280;62184;52.006;5.924;2022-12-17T04:20:26;101609.38;;;1.95;66.72
73842;BME280;62184;52.006;5.924;2022-12-17T04:22:53;101598.69;;;1.89;67.05
73842;BME280;62184;52.006;5.924;2022-12-17T04:25:22;101610.94;;;1.87;66.93
73842;BME280;62184;52.006;5.924;2022-12-17T04:27:48;101618.75;;;1.83;67.02
73842;BME280;62184;52.006;5.924;2022-12-17T04:30:15;101623.00;;;1.76;67.11
73842;BME280;62184;52.006;5.924;2022-12-17T04:32:41;101631.63;;;1.71;67.09
73842;BME280;62184;52.006;5.924;2022-12-17T04:35:08;101632.44;;;1.68;67.12
73842;BME280;62184;52.006;5.924;2022-12-17T04:37:34;101642.94;;;1.66;67.16
73842;BME280;62184;52.006;5.924;2022-12-17T04:40:01;101639.34;;;1.63;67.31
73842;BME280;62184;52.006;5.924;2022-12-17T04:42:30;101652.50;;;1.63;67.55
73842;BME280;62184;52.006;5.924;2022-12-17T04:44:56;101653.34;;;1.62;67.32
73842;BME280;62184;52.006;5.924;2022-12-17T04:47:23;101656.84;;;1.61;67.43
73842;BME280;62184;52.006;5.924;2022-12-17T04:49:49;101645.41;;;1.59;67.34
73842;BME280;62184;52.006;5.924;2022-12-17T04:52:15;101648.91;;;1.59;67.58
73842;BME280;62184;52.006;5.924;2022-12-17T04:54:42;101643.75;;;1.64;67.31
73842;BME280;62184;52.006;5.924;2022-12-17T04:57:08;101646.34;;;1.62;67.19
73842;BME280;62184;52.006;5.924;2022-12-17T04:59:37;101640.00;;;1.54;67.15
73842;BME280;62184;52.006;5.924;2022-12-17T05:02:04;101643.34;;;1.47;67.44
73842;BME280;62184;52.006;5.924;2022-12-17T05:04:30;101650.25;;;1.44;67.51
73842;BME280;62184;52.006;5.924;2022-12-17T05:06:57;101651.16;;;1.44;67.52
73842;BME280;62184;52.006;5.924;2022-12-17T05:09:23;101652.88;;;1.42;67.58
73842;BME280;62184;52.006;5.924;2022-12-17T05:11:50;101654.53;;;1.39;67.61
73842;BME280;62184;52.006;5.924;2022-12-17T05:14:16;101664.97;;;1.36;67.42
73842;BME280;62184;52.006;5.924;2022-12-17T05:16:46;101658.63;;;1.27;67.44
73842;BME280;62184;52.006;5.924;2022-12-17T05:19:12;101657.66;;;1.24;67.77
73842;BME280;62184;52.006;5.924;2022-12-17T05:21:38;101650.56;;;1.21;67.78
73842;BME280;62184;52.006;5.924;2022-12-17T05:24:05;101653.28;;;1.24;67.72
73842;BME280;62184;52.006;5.924;2022-12-17T05:26:32;101648.03;;;1.24;67.80
73842;BME280;62184;52.006;5.924;2022-12-17T05:28:58;101648.84;;;1.22;67.75
73842;BME280;62184;52.006;5.924;2022-12-17T05:31:24;101652.34;;;1.22;67.75
73842;BME280;62184;52.006;5.924;2022-12-17T05:33:53;101657.63;;;1.22;67.85
73842;BME280;62184;52.006;5.924;2022-12-17T05:36:20;101653.28;;;1.24;67.80
73842;BME280;62184;52.006;5.924;2022-12-17T05:38:46;101678.75;;;1.25;67.68
73842;BME280;62184;52.006;5.924;2022-12-17T05:41:13;101674.34;;;1.24;67.66
73842;BME280;62184;52.006;5.924;2022-12-17T05:43:40;101678.75;;;1.25;67.69
73842;BME280;62184;52.006;5.924;2022-12-17T05:46:06;101670.91;;;1.28;68.03
73842;BME280;62184;52.006;5.924;2022-12-17T05:48:33;101669.44;;;1.38;67.71
73842;BME280;62184;52.006;5.924;2022-12-17T05:51:03;101664.25;;;1.43;67.66
73842;BME280;62184;52.006;5.924;2022-12-17T05:53:29;101661.66;;;1.44;67.50
73842;BME280;62184;52.006;5.924;2022-12-17T05:55:56;101668.66;;;1.42;67.40
73842;BME280;62184;52.006;5.924;2022-12-17T05:58:22;101662.38;;;1.37;67.37
73842;BME280;62184;52.006;5.924;2022-12-17T06:00:49;101657.97;;;1.36;67.49
73842;BME280;62184;52.006;5.924;2022-12-17T06:03:19;101665.78;;;1.33;67.57
73842;BME280;62184;52.006;5.924;2022-12-17T06:05:46;101668.34;;;1.30;67.36
73842;BME280;62184;52.006;5.924;2022-12-17T06:08:16;101669.13;;;1.27;67.67
73842;BME280;62184;52.006;5.924;2022-12-17T06:10:42;101665.78;;;1.33;67.59
73842;BME280;62184;52.006;5.924;2022-12-17T06:13:08;101671.16;;;1.38;67.39
73842;BME280;62184;52.006;5.924;2022-12-17T06:15:35;101678.22;;;1.39;67.57
73842;BME280;62184;52.006;5.924;2022-12-17T06:18:01;101678.13;;;1.36;67.28
73842;BME280;62184;52.006;5.924;2022-12-17T06:20:28;101674.50;;;1.31;67.58
73842;BME280;62184;52.006;5.924;2022-12-17T06:23:01;101687.66;;;1.31;67.80
73842;BME280;62184;52.006;5.924;2022-12-17T06:25:31;101692.22;;;1.38;67.70
73842;BME280;62184;52.006;5.924;2022-12-17T06:27:58;101698.53;;;1.44;67.62
73842;BME280;62184;52.006;5.924;2022-12-17T06:30:26;101695.00;;;1.42;67.43
73842;BME280;62184;52.006;5.924;2022-12-17T06:33:02;101694.00;;;1.39;67.41
73842;BME280;62184;52.006;5.924;2022-12-17T06:35:29;101694.06;;;1.40;67.62
73842;BME280;62184;52.006;5.924;2022-12-17T06:37:58;101688.88;;;1.45;67.36
73842;BME280;62184;52.006;5.924;2022-12-17T06:40:25;101689.78;;;1.45;67.54
73842;BME280;62184;52.006;5.924;2022-12-17T06:42:55;101693.41;;;1.49;67.59
73842;BME280;62184;52.006;5.924;2022-12-17T06:45:22;101696.91;;;1.49;67.44
73842;BME280;62184;52.006;5.924;2022-12-17T06:47:48;101689.81;;;1.47;67.22
73842;BME280;62184;52.006;5.924;2022-12-17T06:50:15;101695.00;;;1.42;67.49
73842;BME280;62184;52.006;5.924;2022-12-17T06:52:42;101700.22;;;1.41;67.31
73842;BME280;62184;52.006;5.924;2022-12-17T06:55:08;101701.91;;;1.39;67.39
73842;BME280;62184;52.006;5.924;2022-12-17T06:57:35;101711.34;;;1.31;67.51
73842;BME280;62184;52.006;5.924;2022-12-17T07:00:05;101714.75;;;1.28;67.63
73842;BME280;62184;52.006;5.924;2022-12-17T07:02:33;101706.72;;;1.22;67.71
73842;BME280;62184;52.006;5.924;2022-12-17T07:05:00;101705.91;;;1.24;67.89
73842;BME280;62184;52.006;5.924;2022-12-17T07:07:26;101712.03;;;1.23;67.96
73842;BME280;62184;52.006;5.924;2022-12-17T07:09:52;101713.75;;;1.23;68.08
73842;BME280;62184;52.006;5.924;2022-12-17T07:12:19;101714.72;;;1.26;67.98
73842;BME280;62184;52.006;5.924;2022-12-17T07:14:45;101718.28;;;1.28;67.76
73842;BME280;62184;52.006;5.924;2022-12-17T07:17:14;101723.56;;;1.28;68.08
73842;BME280;62184;52.006;5.924;2022-12-17T07:19:41;101728.75;;;1.27;67.90
73842;BME280;62184;52.006;5.924;2022-12-17T07:22:09;101727.84;;;1.25;67.89
73842;BME280;62184;52.006;5.924;2022-12-17T07:24:35;101727.88;;;1.26;68.09
73842;BME280;62184;52.006;5.924;2022-12-17T07:27:02;101734.13;;;1.30;67.92
73842;BME280;62184;52.006;5.924;2022-12-17T07:29:28;101726.28;;;1.32;67.95
73842;BME280;62184;52.006;5.924;2022-12-17T07:31:55;101731.53;;;1.32;67.92
73842;BME280;62184;52.006;5.924;2022-12-17T07:34:24;101730.50;;;1.26;67.83
73842;BME280;62184;52.006;5.924;2022-12-17T07:36:50;101732.13;;;1.21;68.07
73842;BME280;62184;52.006;5.924;2022-12-17T07:39:17;101732.94;;;1.19;68.22
73842;BME280;62184;52.006;5.924;2022-12-17T07:41:43;101735.59;;;1.20;68.12
73842;BME280;62184;52.006;5.924;2022-12-17T07:44:09;101744.44;;;1.22;68.15
73842;BME280;62184;52.006;5.924;2022-12-17T07:46:36;101743.50;;;1.20;68.11
73842;BME280;62184;52.006;5.924;2022-12-17T07:49:02;101744.34;;;1.19;68.30
73842;BME280;62184;52.006;5.924;2022-12-17T07:51:31;101746.34;;;1.28;68.34
73842;BME280;62184;52.006;5.924;2022-12-17T07:53:58;101749.22;;;1.37;68.20
73842;BME280;62184;52.006;5.924;2022-12-17T07:56:24;101758.09;;;1.41;68.23
73842;BME280;62184;52.006;5.924;2022-12-17T07:58:51;101766.97;;;1.44;68.31
73842;BME280;62184;52.006;5.924;2022-12-17T08:01:17;101769.69;;;1.47;68.12
73842;BME280;62184;52.006;5.924;2022-12-17T08:03:44;101765.25;;;1.46;68.13
73842;BME280;62184;52.006;5.924;2022-12-17T08:06:10;101771.47;;;1.48;68.52
73842;BME280;62184;52.006;5.924;2022-12-17T08:08:39;101776.84;;;1.53;68.32
73842;BME280;62184;52.006;5.924;2022-12-17T08:11:06;101778.72;;;1.57;68.53
73842;BME280;62184;52.006;5.924;2022-12-17T08:13:32;101784.94;;;1.59;68.27
73842;BME280;62184;52.006;5.924;2022-12-17T08:15:59;101786.66;;;1.58;68.15
73842;BME280;62184;52.006;5.924;2022-12-17T08:18:25;101797.19;;;1.58;68.20
73842;BME280;62184;52.006;5.924;2022-12-17T08:20:52;101797.06;;;1.54;68.27
73842;BME280;62184;52.006;5.924;2022-12-17T08:23:18;101798.84;;;1.55;68.47
73842;BME280;62184;52.006;5.924;2022-12-17T08:25:48;101806.06;;;1.62;68.66
73842;BME280;62184;52.006;5.924;2022-12-17T08:28:14;101808.94;;;1.71;68.38
73842;BME280;62184;52.006;5.924;2022-12-17T08:30:41;101808.25;;;1.78;68.44
73842;BME280;62184;52.006;5.924;2022-12-17T08:33:08;101813.66;;;1.83;68.21
73842;BME280;62184;52.006;5.924;2022-12-17T08:35:34;101816.19;;;1.80;68.09
73842;BME280;62184;52.006;5.924;2022-12-17T08:38:01;101819.72;;;1.80;67.91
73842;BME280;62184;52.006;5.924;2022-12-17T08:40:28;101817.88;;;1.78;67.94
73842;BME280;62184;52.006;5.924;2022-12-17T08:43:00;101820.41;;;1.73;67.78
73842;BME280;62184;52.006;5.924;2022-12-17T08:45:26;101826.38;;;1.66;67.56
73842;BME280;62184;52.006;5.924;2022-12-17T08:48:00;101827.13;;;1.62;67.74
73842;BME280;62184;52.006;5.924;2022-12-17T08:50:27;101824.47;;;1.62;67.81
73842;BME280;62184;52.006;5.924;2022-12-17T08:52:57;101826.13;;;1.57;67.67
73842;BME280;62184;52.006;5.924;2022-12-17T08:55:23;101816.38;;;1.54;67.81
73842;BME280;62184;52.006;5.924;2022-12-17T08:57:53;101819.81;;;1.52;67.74
73842;BME280;62184;52.006;5.924;2022-12-17T09:00:22;101819.16;;;1.59;67.84
73842;BME280;62184;52.006;5.924;2022-12-17T09:02:55;101825.31;;;1.59;67.46
73842;BME280;62184;52.006;5.924;2022-12-17T09:05:22;101820.91;;;1.58;67.61
73842;BME280;62184;52.006;5.924;2022-12-17T09:07:48;101829.69;;;1.59;67.62
73842;BME280;62184;52.006;5.924;2022-12-17T09:10:22;101833.31;;;1.64;67.72
73842;BME280;62184;52.006;5.924;2022-12-17T09:12:49;101835.16;;;1.68;67.49
73842;BME280;62184;52.006;5.924;2022-12-17T09:15:15;101836.13;;;1.70;67.45
73842;BME280;62184;52.006;5.924;2022-12-17T09:17:44;101832.53;;;1.68;67.45
73842;BME280;62184;52.006;5.924;2022-12-17T09:20:11;101837.94;;;1.73;67.64
73842;BME280;62184;52.006;5.924;2022-12-17T09:22:37;101835.41;;;1.77;67.46
73842;BME280;62184;52.006;5.924;2022-12-17T09:25:04;101826.78;;;1.81;67.33
73842;BME280;62184;52.006;5.924;2022-12-17T09:27:31;101833.72;;;1.79;67.26
73842;BME280;62184;52.006;5.924;2022-12-17T09:29:58;101839.03;;;1.81;67.19
73842;BME280;62184;52.006;5.924;2022-12-17T09:32:24;101843.63;;;1.88;67.30
73842;BME280;62184;52.006;5.924;2022-12-17T09:34:53;101851.69;;;1.94;67.15
73842;BME280;62184;52.006;5.924;2022-12-17T09:37:20;101853.59;;;1.99;66.98
73842;BME280;62184;52.006;5.924;2022-12-17T09:39:46;101858.09;;;2.03;66.92
73842;BME280;62184;52.006;5.924;2022-12-17T09:42:17;101862.34;;;1.98;66.64
73842;BME280;62184;52.006;5.924;2022-12-17T09:44:53;101858.78;;;1.96;66.67
73842;BME280;62184;52.006;5.924;2022-12-17T09:47:34;101864.97;;;1.98;66.67
73842;BME280;62184;52.006;5.924;2022-12-17T09:50:14;101867.41;;;1.91;66.34
73842;BME280;62184;52.006;5.924;2022-12-17T09:52:41;101874.28;;;1.84;66.56
73842;BME280;62184;52.006;5.924;2022-12-17T09:55:20;101872.38;;;1.80;66.27
73842;BME280;62184;52.006;5.924;2022-12-17T09:57:52;101861.69;;;1.74;66.69
73842;BME280;62184;52.006;5.924;2022-12-17T10:00:20;101858.97;;;1.71;66.83
73842;BME280;62184;52.006;5.924;2022-12-17T10:02:49;101858.22;;;1.75;66.88
73842;BME280;62184;52.006;5.924;2022-12-17T10:05:21;101861.69;;;1.74;66.44
73842;BME280;62184;52.006;5.924;2022-12-17T10:07:51;101856.34;;;1.71;66.54
73842;BME280;62184;52.006;5.924;2022-12-17T10:10:22;101852.06;;;1.75;66.81
73842;BME280;62184;52.006;5.924;2022-12-17T10:12:50;101861.97;;;1.85;66.62
73842;BME280;62184;52.006;5.924;2022-12-17T10:15:16;101865.59;;;1.88;66.45
73842;BME280;62184;52.006;5.924;2022-12-17T10:17:43;101857.63;;;1.87;66.54
73842;BME280;62184;52.006;5.924;2022-12-17T10:20:20;101870.09;;;1.92;66.63
73842;BME280;62184;52.006;5.924;2022-12-17T10:22:49;101875.47;;;1.97;66.44
73842;BME280;62184;52.006;5.924;2022-12-17T10:25:17;101869.22;;;1.93;66.18
73842;BME280;62184;52.006;5.924;2022-12-17T10:27:45;101870.09;;;1.92;66.20
73842;BME280;62184;52.006;5.924;2022-12-17T10:30:14;101870.22;;;1.97;66.48
73842;BME280;62184;52.006;5.924;2022-12-17T10:32:42;101870.41;;;2.04;66.33
73842;BME280;62184;52.006;5.924;2022-12-17T10:35:15;101873.78;;;1.99;65.71
73842;BME280;62184;52.006;5.924;2022-12-17T10:37:46;101872.75;;;1.94;66.14
73842;BME280;62184;52.006;5.924;2022-12-17T10:40:19;101872.00;;;1.98;66.09
73842;BME280;62184;52.006;5.924;2022-12-17T10:42:50;101875.47;;;1.97;65.70
73842;BME280;62184;52.006;5.924;2022-12-17T10:45:21;101873.84;;;2.02;66.08
73842;BME280;62184;52.006;5.924;2022-12-17T10:47:50;101872.94;;;2.01;65.62
73842;BME280;62184;52.006;5.924;2022-12-17T10:50:21;101876.28;;;1.94;65.85
73842;BME280;62184;52.006;5.924;2022-12-17T10:52:49;101876.22;;;1.91;65.89
73842;BME280;62184;52.006;5.924;2022-12-17T10:55:20;101870.06;;;1.91;65.89
73842;BME280;62184;52.006;5.924;2022-12-17T10:57:51;101858.53;;;1.87;65.99
73842;BME280;62184;52.006;5.924;2022-12-17T11:00:21;101865.69;;;1.91;66.12
73842;BME280;62184;52.006;5.924;2022-12-17T11:02:49;101867.53;;;1.95;66.10
73842;BME280;62184;52.006;5.924;2022-12-17T11:05:23;101869.47;;;2.02;65.93
73842;BME280;62184;52.006;5.924;2022-12-17T11:07:52;101879.25;;;2.07;65.89
73842;BME280;62184;52.006;5.924;2022-12-17T11:10:21;101878.44;;;2.09;66.12
73842;BME280;62184;52.006;5.924;2022-12-17T11:12:51;101890.00;;;2.14;65.95
73842;BME280;62184;52.006;5.924;2022-12-17T11:15:25;101888.41;;;2.21;65.82
73842;BME280;62184;52.006;5.924;2022-12-17T11:18:00;101885.91;;;2.27;65.63
73842;BME280;62184;52.006;5.924;2022-12-17T11:20:43;101883.28;;;2.27;65.30
73842;BME280;62184;52.006;5.924;2022-12-17T11:23:17;101885.63;;;2.15;65.53
73842;BME280;62184;52.006;5.924;2022-12-17T11:25:51;101877.63;;;2.12;65.36
73842;BME280;62184;52.006;5.924;2022-12-17T11:28:23;101877.72;;;2.15;65.92
73842;BME280;62184;52.006;5.924;2022-12-17T11:30:57;101874.19;;;2.14;65.52
73842;BME280;62184;52.006;5.924;2022-12-17T11:33:40;101874.03;;;2.08;65.57
73842;BME280;62184;52.006;5.924;2022-12-17T11:36:25;101868.75;;;2.08;65.85
73842;BME280;62184;52.006;5.924;2022-12-17T11:39:03;101867.28;;;2.19;65.83
73842;BME280;62184;52.006;5.924;2022-12-17T11:41:44;101868.41;;;2.29;65.68
73842;BME280;62184;52.006;5.924;2022-12-17T11:44:29;101860.69;;;2.36;65.51
73842;BME280;62184;52.006;5.924;2022-12-17T11:47:14;101860.72;;;2.38;65.27
73842;BME280;62184;52.006;5.924;2022-12-17T11:49:55;101859.13;;;2.43;65.23
73842;BME280;62184;52.006;5.924;2022-12-17T11:52:38;101853.03;;;2.47;65.01
73842;BME280;62184;52.006;5.924;2022-12-17T11:55:18;101860.09;;;2.48;65.00
73842;BME280;62184;52.006;5.924;2022-12-17T11:57:55;101851.34;;;2.49;64.97
73842;BME280;62184;52.006;5.924;2022-12-17T12:00:25;101857.66;;;2.56;65.08
73842;BME280;62184;52.006;5.924;2022-12-17T12:02:57;101854.06;;;2.54;64.83
73842;BME280;62184;52.006;5.924;2022-12-17T12:05:41;101856.63;;;2.49;64.93
73842;BME280;62184;52.006;5.924;2022-12-17T12:08:21;101861.84;;;2.48;65.12
73842;BME280;62184;52.006;5.924;2022-12-17T12:10:57;101864.56;;;2.51;65.06
73842;BME280;62184;52.006;5.924;2022-12-17T12:13:37;101862.84;;;2.53;64.96
73842;BME280;62184;52.006;5.924;2022-12-17T12:16:14;101867.38;;;2.58;64.84
73842;BME280;62184;52.006;5.924;2022-12-17T12:18:54;101862.16;;;2.60;64.49
73842;BME280;62184;52.006;5.924;2022-12-17T12:21:37;101859.34;;;2.54;64.65
73842;BME280;62184;52.006;5.924;2022-12-17T12:24:22;101868.09;;;2.51;64.63
73842;BME280;62184;52.006;5.924;2022-12-17T12:27:11;101872.28;;;2.43;64.48
73842;BME280;62184;52.006;5.924;2022-12-17T12:29:50;101865.91;;;2.35;64.67
73842;BME280;62184;52.006;5.924;2022-12-17T12:32:34;101863.31;;;2.36;64.96
73842;BME280;62184;52.006;5.924;2022-12-17T12:35:12;101859.97;;;2.42;64.96
73842;BME280;62184;52.006;5.924;2022-12-17T12:37:44;101860.91;;;2.46;64.79
73842;BME280;62184;52.006;5.924;2022-12-17T12:40:19;101861.09;;;2.53;64.97
73842;BME280;62184;52.006;5.924;2022-12-17T12:42:55;101852.47;;;2.60;64.88
73842;BME280;62184;52.006;5.924;2022-12-17T12:45:37;101853.34;;;2.61;64.40
73842;BME280;62184;52.006;5.924;2022-12-17T12:48:23;101857.69;;;2.57;64.46
73842;BME280;62184;52.006;5.924;2022-12-17T12:51:04;101856.75;;;2.55;64.60
73842;BME280;62184;52.006;5.924;2022-12-17T12:53:38;101862.16;;;2.61;64.61
73842;BME280;62184;52.006;5.924;2022-12-17T12:56:26;101858.53;;;2.56;64.24
73842;BME280;62184;52.006;5.924;2022-12-17T12:58:54;101859.28;;;2.51;64.28
73842;BME280;62184;52.006;5.924;2022-12-17T13:01:31;101867.16;;;2.49;64.35
73842;BME280;62184;52.006;5.924;2022-12-17T13:04:00;101860.19;;;2.51;64.24
73842;BME280;62184;52.006;5.924;2022-12-17T13:06:44;101868.84;;;2.47;64.11
73842;BME280;62184;52.006;5.924;2022-12-17T13:09:32;101867.81;;;2.40;64.59
73842;BME280;62184;52.006;5.924;2022-12-17T13:12:25;101865.94;;;2.36;64.45